Garnavillo, Iowa
Current Conditions -  °F | °C
As of 8:15 AM on Sunday 25 Jan 2015 (Local Time) from KPDC Reporting Station
Light Snow Light Snow  
Wind Chill: 21°   Ceiling: 1200
Heat Index: 27°   Visibility: 1.2mi
Dew Point: 21°   Wind: 5mph
Humidity: 79%   Direction: 50°NE
Pressure: 29.85"   Gusts: 17mph
Location:  42.87°N, 91.24°W
Report Text: KPDC 251415Z AUTO 05004G15KT 1 1/4SM -SN BKN012 OVC018 M03/M06 A2985 RMK AO2 T10301061
Loading
Personal Weather Stations






























Interactive Weather Map New forecast layout! Learn more

10-Day Weather Forecast

Advertisements
Track Severe Weather on mobile